Wednesday, January 17, 2018, 4:36 PM EST
Back to Local

KELZ, Wellsville Municipal Airport

Location: Wellsville, NY, United States Lat: 42.1
Local Time: 4:36 PM EST (21:36 GMT) Lon: -78
Time Zone: US/Eastern Elev: 2122 ft

Show me the last for .
Show Decoded

2018-01-17 15:56 METAR KELZ 172056Z AUTO 27009KT 10SM OVC025 M09/M14 A3020 RMK AO2 SLP270
                 T10891144 55008 $ =
2018-01-17 15:17 METAR KELZ 172017Z AUTO 27012KT 10SM BKN025 M08/M14 A3020 RMK AO2 T10781139 $ =
2018-01-17 14:56 METAR KELZ 171956Z AUTO 30008KT 10SM FEW025 M08/M14 A3020 RMK AO2 SLP269
                 T10831139 $ =
2018-01-17 14:41 METAR KELZ 171941Z AUTO 29009KT 10SM SCT016 M09/M14 A3020 RMK AO2 T10941144 $ =
2018-01-17 13:56 METAR KELZ 171856Z AUTO 28013KT 10SM BKN022 M09/M14 A3021 RMK AO2 SLP271
                 T10941144 $ =
2018-01-17 13:10 METAR KELZ 171810Z AUTO 28011KT 10SM BKN022 M08/M13 A3022 RMK AO2 T10831133 $ =
2018-01-17 12:56 METAR KELZ 171756Z AUTO VRB06KT 10SM FEW020 M09/M14 A3023 RMK AO2 UPB33E43
                 SLP275 P0000 60000 I6000 T10891139 11089 21150 58017 $ =
2018-01-17 11:56 METAR KELZ 171656Z AUTO 31008KT 10SM CLR M11/M15 A3026 RMK AO2 SLP289 T11061150
                 $ =
2018-01-17 10:56 METAR KELZ 171556Z AUTO 27008KT 10SM CLR M11/M15 A3029 RMK AO2 SLP296 T11111150
                 $ =
2018-01-17 10:07 METAR KELZ 171507Z AUTO 27009KT 7SM SCT022 M12/M16 A3028 RMK AO2 T11221156 $ =
2018-01-17 09:56 METAR KELZ 171456Z AUTO 26009KT 7SM BKN022 M12/M16 A3028 RMK AO2 SLP292 I3000
                 T11221156 53001 $ =
2018-01-17 09:27 METAR KELZ 171427Z AUTO 26007KT 3SM HZ OVC023 M13/M16 A3027 RMK AO2 T11281156 $
                 =
2018-01-17 09:10 METAR KELZ 171410Z AUTO 24005KT 2 1/2SM BR BKN021 BKN031 M13/M16 A3027 RMK AO2
                 T11331156 $ =
2018-01-17 08:56 METAR KELZ 171356Z AUTO 26008KT 5SM BR FEW015 M13/M16 A3028 RMK AO2 SLP291
                 T11331156 $ =
2018-01-17 07:56 METAR KELZ 171256Z AUTO 26009KT 5SM BR CLR M14/M17 A3027 RMK AO2 SLP292 I1000
                 T11441167 $ =
2018-01-17 06:56 METAR KELZ 171156Z AUTO 27009KT 8SM CLR M14/M17 A3027 RMK AO2 SLP292 60000 70002
                 T11441167 11094 21144 52000 $ =
2018-01-17 05:56 METAR KELZ 171056Z AUTO 26010KT 10SM CLR M14/M17 A3028 RMK AO2 SLP293 T11391167
                 $ =
2018-01-17 04:56 METAR KELZ 170956Z AUTO 00000KT 8SM FEW010 M13/M16 A3027 RMK AO2 SNE29 SLP290
                 P0000 T11331156 $ =
2018-01-17 04:51 METAR KELZ 170951Z AUTO 00000KT 8SM FEW010 SCT015 M13/M16 A3027 RMK AO2 SNE29
                 P0000 $ =
2018-01-17 04:25 METAR KELZ 170925Z AUTO 28007KT 6SM -SN OVC015 M12/M16 A3028 RMK AO2 P0000
                 T11221156 $ =
2018-01-17 03:56 METAR KELZ 170856Z AUTO 28012KT 5SM -SN OVC013 M12/M15 A3028 RMK AO2 SNB0757
                 SLP293 P0000 60000 T11221150 51008 $ =
2018-01-17 03:45 METAR KELZ 170845Z AUTO 28008KT 4SM -SN OVC012 M12/M15 A3028 RMK AO2 SNB0757
                 P0000 T11171150 $ =
2018-01-17 03:36 METAR KELZ 170836Z AUTO 28005KT 2 1/2SM -SN OVC012 M12/M14 A3028 RMK AO2 SNB0757
                 P0000 T11171144 $ =
2018-01-17 02:56 METAR KELZ 170756Z AUTO 26006KT 4SM BR OVC010 M12/M14 A3028 RMK AO2 SNE46 SLP290
                 P0000 T11171139 $ =
2018-01-17 02:18 METAR KELZ 170718Z AUTO 27012KT 3SM -SN BKN014 OVC019 M11/M14 A3027 RMK AO2
                 P0000 T11111139 $ =
2018-01-17 01:56 METAR KELZ 170656Z AUTO 26009KT 3SM -SN BR SCT013 OVC019 M11/M13 A3027 RMK AO2
                 SLP286 P0000 T11061128 $ =
2018-01-17 01:37 METAR KELZ 170637Z AUTO 28007KT 3SM -SN BKN014 OVC019 M10/M13 A3026 RMK AO2
                 P0000 T11001128 $ =
2018-01-17 01:20 METAR KELZ 170620Z AUTO 31009KT 2 1/2SM -SN BR OVC014 M10/M12 A3026 RMK AO2
                 P0000 T11001122 $ =
2018-01-17 00:56 METAR KELZ 170556Z AUTO 32008KT 2 1/2SM -SN OVC018 M09/M12 A3026 RMK AO2 SLP283
                 P0000 60000 T10941122 11039 21094 53001 $ =
2018-01-17 00:37 METAR KELZ 170537Z AUTO 31009KT 1 3/4SM -SN BR OVC016 M09/M12 A3026 RMK AO2
                 P0000 T10941117 $ =
2018-01-17 00:08 METAR KELZ 170508Z AUTO 33009KT 2 1/2SM -SN BR OVC011 M09/M11 A3026 RMK AO2
                 P0000 T10891111 $ =
2018-01-16 23:56 METAR KELZ 170456Z AUTO 33009KT 3SM -SN BR SCT006 OVC012 M08/M11 A3026 RMK AO2
                 SLP282 P0000 T10831106 410331083 $ =
2018-01-16 23:40 METAR KELZ 170440Z AUTO 34008KT 2 1/2SM -SN BR OVC006 M08/M09 A3026 RMK AO2
                 P0000 T10781094 $ =
2018-01-16 22:56 METAR KELZ 170356Z AUTO 35004KT 1 1/2SM -SN BR OVC006 M06/M07 A3025 RMK AO2
                 SLP279 P0000 T10611072 $ =
2018-01-16 21:56 METAR KELZ 170256Z AUTO 35004KT 1 3/4SM -SN BR BKN005 BKN009 OVC014 M05/M07
                 A3026 RMK AO2 SLP279 P0000 60000 T10501067 51003 $ =
2018-01-16 21:51 METAR KELZ 170251Z AUTO 34006KT 1 3/4SM -SN BR BKN003 BKN009 OVC023 M05/M07
                 A3026 RMK AO2 P0000 $ =
2018-01-16 21:42 METAR KELZ 170242Z AUTO 01005KT 1 3/4SM -SN BR FEW003 BKN015 OVC023 M05/M06
                 A3025 RMK AO2 P0000 T10501061 $ =
2018-01-16 21:31 METAR KELZ 170231Z AUTO 28004KT 2SM -SN BR OVC021 M04/M06 A3025 RMK AO2 P0000
                 T10391061 $ =
2018-01-16 21:09 METAR KELZ 170209Z AUTO 25005KT 3SM -SN BR OVC017 M04/M06 A3025 RMK AO2 P0000
                 T10391056 $ =
2018-01-16 20:56 METAR KELZ 170156Z AUTO 26005KT 2 1/2SM -SN BR SCT009 OVC016 M04/M06 A3025 RMK
                 AO2 SLP277 P0000 T10391056 $ =
2018-01-16 20:54 METAR KELZ 170154Z AUTO 25004KT 2 1/2SM -SN BR BKN009 OVC018 M04/M06 A3025 RMK
                 AO2 CIG 008V013 P0000 $ =
2018-01-16 20:49 METAR KELZ 170149Z AUTO 26004KT 2 1/2SM -SN BR SCT009 OVC015 M04/M06 A3025 RMK
                 AO2 P0000 T10391056 $ =
2018-01-16 20:47 METAR KELZ 170147Z AUTO 26005KT 3SM -SN BR BKN009 OVC015 M04/M06 A3025 RMK AO2
                 P0000 T10391056 $ =
2018-01-16 20:17 METAR KELZ 170117Z AUTO 00000KT 2 1/2SM -SN BR BKN009 OVC028 M04/M05 A3025 RMK
                 AO2 CIG 007V011 P0000 T10391050 $ =
2018-01-16 20:09 METAR KELZ 170109Z AUTO 30004KT 2 1/2SM -SN BR BKN010 OVC028 M04/M06 A3025 RMK
                 AO2 CIG 007V012 P0000 T10391056 $ =
2018-01-16 19:56 METAR KELZ 170056Z AUTO 23003KT 2 1/2SM -SN BR SCT014 OVC029 M04/M06 A3025 RMK
                 AO2 SNB32 SLP276 P0000 T10391056 $ =
2018-01-16 19:42 METAR KELZ 170042Z AUTO 19004KT 4SM -SN BR BKN015 BKN026 OVC031 M04/M06 A3025
                 RMK AO2 SNB32 P0000 T10391056 $ =
2018-01-16 18:56 METAR KELZ 162356Z AUTO 00000KT 5SM BR FEW013 SCT027 BKN032 M04/M05 A3025 RMK
                 AO2 SNE49 SLP275 P0001 60002 T10391050 11033 21044 55000 $ =
2018-01-16 18:41 METAR KELZ 162341Z AUTO 00000KT 3SM -SN BR OVC029 M04/M05 A3025 RMK AO2 P0001
                 T10391050 $ =
2018-01-16 18:28 METAR KELZ 162328Z AUTO 13003KT 2 1/2SM -SN BR FEW029 OVC037 M04/M05 A3024 RMK
                 AO2 P0001 T10391050 $ =
2018-01-16 18:17 METAR KELZ 162317Z AUTO 14003KT 3SM -SN BR FEW029 OVC043 M04/M05 A3024 RMK AO2
                 P0001 T10391050 $ =
2018-01-16 18:07 METAR KELZ 162307Z AUTO 13003KT 2 1/2SM -SN BR OVC043 M04/M05 A3024 RMK AO2
                 P0001 T10391050 $ =
2018-01-16 17:56 METAR KELZ 162256Z AUTO 00000KT 1 3/4SM -SN BR OVC037 M04/M05 A3024 RMK AO2
                 SLP274 P0000 T10391050 $ =
2018-01-16 17:30 METAR KELZ 162230Z AUTO 00000KT 2SM -SN BR OVC039 M04/M05 A3024 RMK AO2 P0000
                 T10391050 $ =
2018-01-16 17:14 METAR KELZ 162214Z AUTO 14003KT 1SM -SN BR OVC033 M04/M05 A3024 RMK AO2 P0000
                 T10391050 $ =
2018-01-16 17:03 METAR KELZ 162203Z AUTO 15003KT 1SM -SN BR OVC029 M04/M05 A3024 RMK AO2 P0000
                 T10391050 $ =
2018-01-16 16:56 METAR KELZ 162156Z AUTO 14004KT 1SM -SN BR OVC030 M04/M05 A3025 RMK AO2 SLP275
                 P0000 T10391050 $ =
2018-01-16 16:51 METAR KELZ 162151Z AUTO 14004KT 1SM -SN BR OVC030 M04/M05 A3025 RMK AO2 P0000 $
                 =

Support USWX by starting your Amazon purchase here.